SGAS

Details ICAO SGAS (ASU)
Name SILVIO PETTIROSSI INTL
Region Paraguay
Timezone America/Asuncion (UTC-4.0)
Plans Departing 173
Arriving 192
Stats Elevation 292 ft / 89 m (AMSL)
Location -25.239850° -57.519135°
Runways 1
Magnetic Variation 14.251° W
Sunrise 2018-06-23 10:36:34 UTC / 2018-06-23 06:36:34 Local
Sunset 2018-06-23 21:10:28 UTC / 2018-06-23 17:10:28 Local
Advertisement - Login to hide

Runways

ID Width Length Bearing (true) Bearing (mag) Surface Threshold Offset Overrun Length
02 151 ft / 46 m 11,043 ft / 3,366 m 12.40° 26.65° Asphalt 0 ft / 0 m 161 ft / 49 m
20 151 ft / 46 m 11,043 ft / 3,366 m 192.40° 206.65° Asphalt 0 ft / 0 m 165 ft / 50 m

Approach Navaids

Runway Type Ident Frequency Range Bearing (true) Bearing (mag) Slope Elevation
20 Localiser IPST 109.50 MHz 18 nm / 33 km 192.47° 206.72° - 288 ft / 88 m (AMSL)
20 Glidescope IPST 109.50 MHz 10 nm / 19 km 192.40° 206.65° 3.00° 298 ft / 91 m (AMSL)

Map

Weather


0- 5 10 15 20 25 30 35+ Temperature / ° C

Clouds and Precipitation
Forecast for 2018-06-23 12:00 UTC. Updated 4 hours ago

Ground ~20,000 ft ~40,000 ft Winds

METAR

SGAS 231400Z 03011KT 9999 FEW033 25/17 Q1012

TAF

Not found

Frequencies

Ground 121.90 MHz GND
Approach 119.70 MHz ASUNCION APP
Tower 118.10 MHz ASUNCION TWR
Approach 120.00 MHz ASUNCION APP
Warning: Do not use this data for real-world aviation or navigation. No guarantee of current accuracy is given.